Terminal Aerodrome Forecast
Issued by NWS

Home | Current Version | Previous Version | Text Only | Print | Product List | Glossary On
Versions: 1 2 3 4 5 6 7 8 9 10 11 12 13 14 15 16 17
000
FTUS43 KDLH 230537
TAFBRD
TAF
KBRD 230537Z 2306/2406 15009KT P6SM VCSH SCT035 OVC060
     FM230900 16011KT P6SM VCSH BKN035
     FM231300 16014G21KT P6SM VCSH BKN030
     FM232000 16010KT 3SM -RA BR BKN010 OVC025
     FM240000 16004KT 5SM -RA BR SCT003 BKN008 OVC012=

USA.gov is the U.S. government's official web portal to all federal, state and local government web resources and services.